createdAt,value
2018-11-12T00:00:18.650Z,11.10
2018-11-12T00:02:50.187Z,11.10
2018-11-12T00:05:19.579Z,11.10
2018-11-12T00:07:48.351Z,11.10
2018-11-12T00:10:16.896Z,11.10
2018-11-12T00:12:45.456Z,11.20
2018-11-12T00:15:13.969Z,11.20
2018-11-12T00:17:42.461Z,11.10
2018-11-12T00:20:12.720Z,11.20
2018-11-12T00:22:41.228Z,11.20
2018-11-12T00:25:09.724Z,11.10
2018-11-12T00:27:38.755Z,11.10
2018-11-12T00:30:09.211Z,11.20
2018-11-12T00:32:37.859Z,11.10
2018-11-12T00:35:07.462Z,11.20
2018-11-12T00:37:36.001Z,11.20
2018-11-12T00:40:04.990Z,11.20
2018-11-12T00:42:33.551Z,11.20
2018-11-12T00:45:02.071Z,11.20
2018-11-12T00:47:30.737Z,11.20
2018-11-12T00:49:59.268Z,11.20
2018-11-12T00:52:27.760Z,11.20
2018-11-12T00:54:56.316Z,11.20
2018-11-12T00:57:25.002Z,11.20
2018-11-12T00:59:53.550Z,11.20
2018-11-12T01:02:22.091Z,11.20
2018-11-12T01:04:50.612Z,11.20
2018-11-12T01:07:19.129Z,11.10
2018-11-12T01:09:47.778Z,11.20
2018-11-12T01:12:16.298Z,11.10
2018-11-12T01:14:44.890Z,11.10
2018-11-12T01:17:13.394Z,11.10
2018-11-12T01:19:41.906Z,11.10
2018-11-12T01:22:10.563Z,11.10
2018-11-12T01:24:39.372Z,11.10
2018-11-12T01:27:07.848Z,11.10
2018-11-12T01:29:36.333Z,11.10
2018-11-12T01:32:05.408Z,11.20
2018-11-12T01:34:33.881Z,11.20
2018-11-12T01:37:02.593Z,11.20
2018-11-12T01:39:31.121Z,11.20
2018-11-12T01:41:59.615Z,11.20
2018-11-12T01:44:28.125Z,11.20
2018-11-12T01:46:56.951Z,11.20
2018-11-12T01:49:25.469Z,11.20
2018-11-12T01:51:54.047Z,11.20
2018-11-12T01:54:22.521Z,11.20
2018-11-12T01:56:51.445Z,11.20
2018-11-12T01:59:19.969Z,11.20
2018-11-12T02:01:48.460Z,11.20
2018-11-12T02:04:17.533Z,11.30
2018-11-12T02:06:46.156Z,11.30
2018-11-12T02:09:15.004Z,11.30
2018-11-12T02:11:43.485Z,11.30
2018-11-12T02:14:11.940Z,11.30
2018-11-12T02:16:40.436Z,11.30
2018-11-12T02:19:10.012Z,11.30
2018-11-12T02:21:38.500Z,11.30
2018-11-12T02:24:06.982Z,11.30
2018-11-12T02:26:35.477Z,11.30
2018-11-12T02:29:04.196Z,11.40
2018-11-12T02:31:32.678Z,11.40
2018-11-12T02:34:01.665Z,11.30
2018-11-12T02:36:30.168Z,11.40
2018-11-12T02:38:58.668Z,11.40
2018-11-12T02:41:27.160Z,11.40
2018-11-12T02:43:55.792Z,11.40
2018-11-12T02:46:24.347Z,11.40
2018-11-12T02:48:52.861Z,11.40
2018-11-12T02:51:21.458Z,11.40
2018-11-12T02:53:49.962Z,11.40
2018-11-12T02:56:19.029Z,11.40
2018-11-12T02:58:47.505Z,11.30
2018-11-12T03:01:20.242Z,11.40
2018-11-12T03:03:48.726Z,11.30
2018-11-12T03:06:17.650Z,11.40
2018-11-12T03:08:46.175Z,11.30
2018-11-12T03:11:14.798Z,11.30
2018-11-12T03:13:43.331Z,11.30
2018-11-12T03:16:12.105Z,11.30
2018-11-12T03:18:40.617Z,11.30
2018-11-12T03:21:09.122Z,11.30
2018-11-12T03:23:38.039Z,11.30
2018-11-12T03:26:06.525Z,11.30
2018-11-12T03:28:35.069Z,11.30
2018-11-12T03:31:03.575Z,11.30
2018-11-12T03:33:32.321Z,11.30
2018-11-12T03:36:00.962Z,11.30
2018-11-12T03:38:29.721Z,11.30
2018-11-12T03:40:59.411Z,11.30
2018-11-12T03:43:28.083Z,11.30
2018-11-12T03:45:56.537Z,11.20
2018-11-12T03:48:25.031Z,11.30
2018-11-12T03:50:53.543Z,11.30
2018-11-12T03:53:22.317Z,11.30
2018-11-12T03:55:50.827Z,11.30
2018-11-12T03:58:19.697Z,11.30
2018-11-12T04:00:48.243Z,11.30
2018-11-12T04:03:16.719Z,11.30
2018-11-12T04:05:45.411Z,11.20
2018-11-12T04:08:13.904Z,11.30
2018-11-12T04:10:42.360Z,11.30
2018-11-12T04:13:11.142Z,11.30
2018-11-12T04:15:39.647Z,11.30
2018-11-12T04:18:08.684Z,11.30
2018-11-12T04:20:37.174Z,11.30
2018-11-12T04:23:06.314Z,11.30
2018-11-12T04:25:36.414Z,11.30
2018-11-12T04:28:05.166Z,11.30
2018-11-12T04:30:34.038Z,11.30
2018-11-12T04:33:02.752Z,11.30
2018-11-12T04:35:31.267Z,11.30
2018-11-12T04:38:00.170Z,11.30
2018-11-12T04:40:29.157Z,11.30
2018-11-12T04:42:57.678Z,11.30
2018-11-12T04:45:27.025Z,11.30
2018-11-12T04:47:56.648Z,11.30
2018-11-12T04:50:26.630Z,11.30
2018-11-12T04:52:55.473Z,11.30
2018-11-12T04:55:24.976Z,11.30
2018-11-12T04:57:53.591Z,11.30
2018-11-12T05:00:23.535Z,11.30
2018-11-12T05:02:52.011Z,11.30
2018-11-12T05:05:22.051Z,11.30
2018-11-12T05:07:50.543Z,11.30
2018-11-12T05:10:20.492Z,11.30
2018-11-12T05:12:49.747Z,11.30
2018-11-12T05:15:21.877Z,11.30
2018-11-12T05:17:50.849Z,11.30
2018-11-12T05:20:21.757Z,11.30
2018-11-12T05:22:50.243Z,11.30
2018-11-12T05:25:18.943Z,11.30
2018-11-12T05:27:47.393Z,11.20
2018-11-12T05:30:20.829Z,11.30
2018-11-12T05:32:49.432Z,11.20
2018-11-12T05:35:19.327Z,11.30
2018-11-12T05:37:47.953Z,11.30
2018-11-12T05:40:18.847Z,11.30
2018-11-12T05:42:47.388Z,11.20
2018-11-12T05:45:17.060Z,11.20
2018-11-12T05:47:45.840Z,11.30
2018-11-12T05:50:18.505Z,11.30
2018-11-12T05:52:48.408Z,11.20
2018-11-12T05:55:18.316Z,11.30
2018-11-12T05:57:47.441Z,11.30
2018-11-12T06:00:17.844Z,11.40
2018-11-12T06:02:46.344Z,11.40
2018-11-12T06:05:15.620Z,11.40
2018-11-12T06:07:44.626Z,11.50
2018-11-12T06:10:29.684Z,11.40
2018-11-12T06:12:58.696Z,11.40
2018-11-12T06:15:27.404Z,11.40
2018-11-12T06:17:55.904Z,11.40
2018-11-12T06:20:25.788Z,11.50
2018-11-12T06:22:54.372Z,11.50
2018-11-12T06:26:25.687Z,11.50
2018-11-12T06:28:54.200Z,11.40
2018-11-12T06:31:22.920Z,11.40
2018-11-12T06:33:51.399Z,11.30
2018-11-12T06:36:19.955Z,11.30
2018-11-12T06:38:48.517Z,11.30
2018-11-12T06:41:17.023Z,11.30
2018-11-12T06:43:45.565Z,11.30
2018-11-12T06:46:14.103Z,11.40
2018-11-12T06:48:42.651Z,11.30
2018-11-12T06:51:11.176Z,11.30
2018-11-12T06:53:39.743Z,11.30
2018-11-12T06:56:08.206Z,11.30
2018-11-12T06:58:36.693Z,11.30
2018-11-12T07:01:05.524Z,11.40
2018-11-12T07:03:34.429Z,11.40
2018-11-12T07:06:03.092Z,11.30
2018-11-12T07:08:31.617Z,11.40
2018-11-12T07:11:00.144Z,11.30
2018-11-12T07:13:28.627Z,11.30
2018-11-12T07:15:57.164Z,11.40
2018-11-12T07:18:27.854Z,11.30
2018-11-12T07:20:56.562Z,11.40
2018-11-12T07:23:25.071Z,11.30
2018-11-12T07:25:53.634Z,11.30
2018-11-12T07:28:22.120Z,11.20
2018-11-12T07:30:50.637Z,11.20
2018-11-12T07:33:19.129Z,11.20
2018-11-12T07:35:47.606Z,11.20
2018-11-12T07:38:16.088Z,11.20
2018-11-12T07:40:44.583Z,11.20
2018-11-12T07:43:13.075Z,11.20
2018-11-12T07:45:41.598Z,11.20
2018-11-12T07:48:10.118Z,11.20
2018-11-12T07:50:38.850Z,11.20
2018-11-12T07:53:07.339Z,11.20
2018-11-12T07:55:35.848Z,11.20
2018-11-12T07:58:04.387Z,11.20
2018-11-12T08:00:34.293Z,11.20
2018-11-12T08:03:05.505Z,11.30
2018-11-12T08:05:34.372Z,11.30
2018-11-12T08:08:02.881Z,11.30
2018-11-12T08:10:31.369Z,11.30
2018-11-12T08:12:59.897Z,11.30
2018-11-12T08:15:28.375Z,11.40
2018-11-12T08:17:56.893Z,11.40
2018-11-12T08:20:26.238Z,11.40
2018-11-12T08:22:54.749Z,11.40
2018-11-12T08:25:23.364Z,11.50
2018-11-12T08:27:51.881Z,11.50
2018-11-12T08:30:24.593Z,11.50
2018-11-12T08:32:54.509Z,11.50
2018-11-12T08:35:29.685Z,11.50
2018-11-12T08:37:58.625Z,11.50
2018-11-12T08:40:28.267Z,11.60
2018-11-12T08:42:56.767Z,11.60
2018-11-12T08:45:25.260Z,11.60
2018-11-12T08:47:55.088Z,11.60
2018-11-12T08:50:25.713Z,11.70
2018-11-12T08:52:55.135Z,11.60
2018-11-12T08:55:25.127Z,11.60
2018-11-12T08:57:55.980Z,11.60
2018-11-12T09:00:25.309Z,11.60
2018-11-12T09:02:54.202Z,11.60
2018-11-12T09:05:24.019Z,11.60
2018-11-12T09:07:54.224Z,11.60
2018-11-12T09:10:24.959Z,11.50
2018-11-12T09:12:53.683Z,11.50
2018-11-12T09:15:22.217Z,11.40
2018-11-12T09:17:50.738Z,11.40
2018-11-12T09:20:20.614Z,11.40
2018-11-12T09:22:52.385Z,11.30
2018-11-12T09:25:22.184Z,11.30
2018-11-12T09:27:50.998Z,11.30
2018-11-12T09:30:24.196Z,11.30
2018-11-12T09:32:52.950Z,11.30
2018-11-12T09:35:32.247Z,11.40
2018-11-12T09:38:02.133Z,11.40
2018-11-12T09:40:32.473Z,11.40
2018-11-12T09:43:03.941Z,11.40
2018-11-12T09:45:32.890Z,11.40
2018-11-12T09:48:01.485Z,11.40
2018-11-12T09:50:30.317Z,11.40
2018-11-12T09:52:59.971Z,11.40
2018-11-12T09:55:29.649Z,11.40
2018-11-12T09:58:00.415Z,11.40
2018-11-12T10:00:29.781Z,11.40
2018-11-12T10:02:58.945Z,11.40
2018-11-12T10:05:28.082Z,11.40
2018-11-12T10:08:00.785Z,11.40
2018-11-12T10:10:43.006Z,11.40
2018-11-12T10:13:13.587Z,11.50
2018-11-12T10:15:43.519Z,11.50
2018-11-12T10:20:37.378Z,11.60
2018-11-12T10:23:06.045Z,11.60
2018-11-12T10:25:34.521Z,11.60
2018-11-12T10:28:03.287Z,11.60
2018-11-12T10:30:31.769Z,11.70
2018-11-12T10:33:00.249Z,11.70
2018-11-12T10:35:29.014Z,11.70
2018-11-12T10:38:12.742Z,11.70
2018-11-12T10:40:56.502Z,11.70
2018-11-12T10:43:39.444Z,11.70
2018-11-12T10:46:22.158Z,11.60
2018-11-12T10:49:05.151Z,11.60
2018-11-12T10:51:48.610Z,11.60
2018-11-12T10:54:29.898Z,11.60
2018-11-12T10:56:59.238Z,11.60
2018-11-12T10:59:27.749Z,11.70
2018-11-12T11:02:01.782Z,11.70
2018-11-12T11:04:31.068Z,11.80
2018-11-12T11:06:59.570Z,11.80
2018-11-12T11:09:28.686Z,11.80
2018-11-12T11:11:57.177Z,11.80
2018-11-12T11:14:25.668Z,11.80
2018-11-12T11:16:54.201Z,11.80
2018-11-12T11:19:22.770Z,11.80
2018-11-12T11:21:51.397Z,11.90
2018-11-12T11:24:20.265Z,11.90
2018-11-12T11:26:48.789Z,11.80
2018-11-12T11:29:17.298Z,11.80
2018-11-12T11:31:46.051Z,11.80
2018-11-12T11:34:14.602Z,11.80
2018-11-12T11:36:43.141Z,11.90
2018-11-12T11:39:11.646Z,12.00
2018-11-12T11:41:40.159Z,12.00
2018-11-12T11:44:09.029Z,12.00
2018-11-12T11:46:37.429Z,12.10
2018-11-12T11:49:06.052Z,12.20
2018-11-12T11:51:34.585Z,12.30
2018-11-12T11:54:03.150Z,12.30
2018-11-12T11:56:31.762Z,12.40
2018-11-12T11:59:00.205Z,12.30
2018-11-12T12:01:28.835Z,12.30
2018-11-12T12:03:59.654Z,12.30
2018-11-12T12:06:29.180Z,12.30
2018-11-12T12:08:58.077Z,12.20
2018-11-12T12:11:26.740Z,12.20
2018-11-12T12:13:55.275Z,12.30
2018-11-12T12:16:23.756Z,12.30
2018-11-12T12:18:52.320Z,12.20
2018-11-12T12:21:20.886Z,12.20
2018-11-12T12:23:49.417Z,12.20
2018-11-12T12:26:18.006Z,12.30
2018-11-12T12:28:46.486Z,12.30
2018-11-12T12:31:15.239Z,12.30
2018-11-12T12:33:43.799Z,12.40
2018-11-12T12:36:12.332Z,12.30
2018-11-12T12:38:40.812Z,12.30
2018-11-12T12:41:09.335Z,12.40
2018-11-12T12:43:37.969Z,12.30
2018-11-12T12:46:06.867Z,12.30
2018-11-12T12:48:35.853Z,12.30
2018-11-12T12:51:04.621Z,12.30
2018-11-12T12:53:33.139Z,12.30
2018-11-12T12:56:01.757Z,12.30
2018-11-12T12:58:30.618Z,12.40
2018-11-12T13:00:59.323Z,12.30
2018-11-12T13:03:27.841Z,12.40
2018-11-12T13:05:56.384Z,12.40
2018-11-12T13:08:24.923Z,12.40
2018-11-12T13:10:53.533Z,12.40
2018-11-12T13:13:22.040Z,12.40
2018-11-12T13:15:50.505Z,12.40
2018-11-12T13:18:19.000Z,12.40
2018-11-12T13:20:47.820Z,12.40
2018-11-12T13:23:16.304Z,12.50
2018-11-12T13:25:44.876Z,12.60
2018-11-12T13:28:13.393Z,12.60
2018-11-12T13:30:41.887Z,12.60
2018-11-12T13:33:10.360Z,12.70
2018-11-12T13:35:39.018Z,12.70
2018-11-12T13:38:07.593Z,12.80
2018-11-12T13:40:36.296Z,12.70
2018-11-12T13:43:05.162Z,12.80
2018-11-12T13:45:33.640Z,12.80
2018-11-12T13:48:02.289Z,12.80
2018-11-12T13:50:31.443Z,12.80
2018-11-12T13:53:01.560Z,12.90
2018-11-12T13:55:30.023Z,12.90
2018-11-12T13:57:58.615Z,12.90
2018-11-12T14:00:29.037Z,12.90
2018-11-12T14:02:57.825Z,12.90
2018-11-12T14:05:27.126Z,13.10
2018-11-12T14:07:55.660Z,13.20
2018-11-12T14:10:26.695Z,13.30
2018-11-12T14:12:56.100Z,13.40
2018-11-12T14:15:25.255Z,13.40
2018-11-12T14:17:54.441Z,13.30
2018-11-12T14:20:23.418Z,13.20
2018-11-12T14:22:52.361Z,13.10
2018-11-12T14:25:21.957Z,13.00
2018-11-12T14:27:51.765Z,12.90
2018-11-12T14:30:22.023Z,12.80
2018-11-12T14:32:50.495Z,12.80
2018-11-12T14:35:19.262Z,12.90
2018-11-12T14:37:48.239Z,12.90
2018-11-12T14:40:17.764Z,12.90
2018-11-12T14:42:46.273Z,12.90
2018-11-12T14:45:16.200Z,12.90
2018-11-12T14:47:45.255Z,12.90
2018-11-12T14:50:13.863Z,12.80
2018-11-12T14:52:42.389Z,12.80
2018-11-12T14:55:12.453Z,12.70
2018-11-12T14:57:41.214Z,12.70
2018-11-12T15:00:15.501Z,12.70
2018-11-12T15:02:44.109Z,12.60
2018-11-12T15:05:13.015Z,12.60
2018-11-12T15:07:41.503Z,12.50
2018-11-12T15:10:11.492Z,12.50
2018-11-12T15:12:39.954Z,12.40
2018-11-12T15:15:09.845Z,12.40
2018-11-12T15:17:38.482Z,12.40
2018-11-12T15:20:09.045Z,12.30
2018-11-12T15:22:37.735Z,12.30
2018-11-12T15:25:11.792Z,12.30
2018-11-12T15:27:40.521Z,12.40
2018-11-12T15:30:12.571Z,12.40
2018-11-12T15:32:41.668Z,12.40
2018-11-12T15:35:10.977Z,12.40
2018-11-12T15:37:40.143Z,12.40
2018-11-12T15:40:09.439Z,12.40
2018-11-12T15:42:38.780Z,12.40
2018-11-12T15:45:10.681Z,12.40
2018-11-12T15:47:39.177Z,12.30
2018-11-12T15:50:13.729Z,12.20
2018-11-12T15:52:42.611Z,12.20
2018-11-12T15:55:11.129Z,12.20
2018-11-12T15:57:40.020Z,12.10
2018-11-12T16:00:11.286Z,12.10
2018-11-12T16:02:40.001Z,12.10
2018-11-12T16:05:09.343Z,12.00
2018-11-12T16:07:38.203Z,11.90
2018-11-12T16:10:11.929Z,11.80
2018-11-12T16:12:41.121Z,11.70
2018-11-12T16:15:10.651Z,11.60
2018-11-12T16:17:40.411Z,11.60
2018-11-12T16:20:12.734Z,11.60
2018-11-12T16:22:41.609Z,11.50
2018-11-12T16:25:10.124Z,11.50
2018-11-12T16:27:38.616Z,11.40
2018-11-12T16:30:08.483Z,11.40
2018-11-12T16:32:37.406Z,11.40
2018-11-12T16:35:07.478Z,11.40
2018-11-12T16:37:36.061Z,11.40
2018-11-12T16:40:04.648Z,11.40
2018-11-12T16:42:33.156Z,11.40
2018-11-12T16:45:01.818Z,11.40
2018-11-12T16:47:30.751Z,11.30
2018-11-12T16:49:59.281Z,11.30
2018-11-12T16:52:27.854Z,11.30
2018-11-12T16:54:56.376Z,11.30
2018-11-12T16:57:24.972Z,11.30
2018-11-12T16:59:53.483Z,11.20
2018-11-12T17:02:21.996Z,11.20
2018-11-12T17:04:50.582Z,11.20
2018-11-12T17:07:19.064Z,11.20
2018-11-12T17:09:47.567Z,11.20
2018-11-12T17:12:16.212Z,11.20
2018-11-12T17:14:44.969Z,11.20
2018-11-12T17:17:13.490Z,11.10
2018-11-12T17:19:41.983Z,11.10
2018-11-12T17:22:10.450Z,11.10
2018-11-12T17:24:38.989Z,11.10
2018-11-12T17:27:07.469Z,11.10
2018-11-12T17:29:36.033Z,11.00
2018-11-12T17:32:04.695Z,11.00
2018-11-12T17:34:33.392Z,11.00
2018-11-12T17:37:01.944Z,11.00
2018-11-12T17:39:30.422Z,11.00
2018-11-12T17:41:58.957Z,11.00
2018-11-12T17:44:27.535Z,11.00
2018-11-12T17:46:56.041Z,10.90
2018-11-12T17:49:24.561Z,11.00
2018-11-12T17:51:53.042Z,11.00
2018-11-12T17:54:21.641Z,10.90
2018-11-12T17:56:52.055Z,10.90
2018-11-12T17:59:21.369Z,10.90
2018-11-12T18:01:50.989Z,10.90
2018-11-12T18:04:20.325Z,10.90
2018-11-12T18:06:50.317Z,10.90
2018-11-12T18:09:19.129Z,10.90
2018-11-12T18:11:49.336Z,10.90
2018-11-12T18:14:17.847Z,10.90
2018-11-12T18:16:46.359Z,10.90
2018-11-12T18:19:15.252Z,10.90
2018-11-12T18:21:43.741Z,10.90
2018-11-12T18:24:12.288Z,10.80
2018-11-12T18:26:40.773Z,10.80
2018-11-12T18:29:09.254Z,10.80
2018-11-12T18:31:37.857Z,10.80
2018-11-12T18:34:06.846Z,10.80
2018-11-12T18:36:35.401Z,10.80
2018-11-12T18:39:04.670Z,10.70
2018-11-12T18:41:33.168Z,10.70
2018-11-12T18:44:02.158Z,10.70
2018-11-12T18:46:30.894Z,10.70
2018-11-12T18:48:59.545Z,10.70
2018-11-12T18:51:28.028Z,10.70
2018-11-12T18:53:56.524Z,10.70
2018-11-12T18:56:25.007Z,10.70
2018-11-12T18:58:53.526Z,10.70
2018-11-12T19:01:22.004Z,10.70
2018-11-12T19:03:50.544Z,10.70
2018-11-12T19:06:19.029Z,10.60
2018-11-12T19:08:47.518Z,10.60
2018-11-12T19:11:16.042Z,10.60
2018-11-12T19:13:44.532Z,10.60
2018-11-12T19:16:13.008Z,10.50
2018-11-12T19:18:41.512Z,10.50
2018-11-12T19:21:10.107Z,10.50
2018-11-12T19:23:38.751Z,10.50
2018-11-12T19:26:07.264Z,10.50
2018-11-12T19:28:35.916Z,10.50
2018-11-12T19:31:04.818Z,10.50
2018-11-12T19:33:33.339Z,10.50
2018-11-12T19:36:01.980Z,10.50
2018-11-12T19:38:30.674Z,10.50
2018-11-12T19:40:59.206Z,10.50
2018-11-12T19:43:27.842Z,10.50
2018-11-12T19:45:56.335Z,10.50
2018-11-12T19:48:24.827Z,10.50
2018-11-12T19:50:53.309Z,10.50
2018-11-12T19:53:21.926Z,10.50
2018-11-12T19:55:50.975Z,10.50
2018-11-12T19:58:19.628Z,10.50
2018-11-12T20:00:48.191Z,10.50
2018-11-12T20:03:16.881Z,10.50
2018-11-12T20:05:45.485Z,10.50
2018-11-12T20:08:14.433Z,10.40
2018-11-12T20:10:43.204Z,10.50
2018-11-12T20:13:11.835Z,10.40
2018-11-12T20:15:40.394Z,10.40
2018-11-12T20:18:09.403Z,10.40
2018-11-12T20:20:37.984Z,10.40
2018-11-12T20:23:06.839Z,10.40
2018-11-12T20:25:35.534Z,10.40
2018-11-12T20:28:04.127Z,10.40
2018-11-12T20:30:35.878Z,10.30
2018-11-12T20:33:04.814Z,10.30
2018-11-12T20:35:33.675Z,10.30
2018-11-12T20:38:02.302Z,10.30
2018-11-12T20:40:30.879Z,10.30
2018-11-12T20:42:59.517Z,10.30
2018-11-12T20:45:28.383Z,10.30
2018-11-12T20:47:58.094Z,10.30
2018-11-12T20:50:26.585Z,10.30
2018-11-12T20:52:55.106Z,10.30
2018-11-12T20:55:23.710Z,10.30
2018-11-12T20:57:52.472Z,10.20
2018-11-12T21:00:32.426Z,10.30
2018-11-12T21:03:28.861Z,10.20
2018-11-12T21:06:09.805Z,10.30
2018-11-12T21:08:38.363Z,10.20
2018-11-12T21:11:06.954Z,10.20
2018-11-12T21:13:35.506Z,10.20
2018-11-12T21:16:04.166Z,10.20
2018-11-12T21:18:32.712Z,10.20
2018-11-12T21:21:01.323Z,10.20
2018-11-12T21:23:29.889Z,10.20
2018-11-12T21:25:58.415Z,10.20
2018-11-12T21:28:26.894Z,10.20
2018-11-12T21:30:55.459Z,10.20
2018-11-12T21:33:23.997Z,10.20
2018-11-12T21:35:52.556Z,10.20
2018-11-12T21:38:21.117Z,10.20
2018-11-12T21:40:49.653Z,10.20
2018-11-12T21:43:18.320Z,10.20
2018-11-12T21:45:46.769Z,10.20
2018-11-12T21:48:15.877Z,10.20
2018-11-12T21:50:44.349Z,10.20
2018-11-12T21:53:12.902Z,10.20
2018-11-12T21:55:41.477Z,10.10
2018-11-12T21:58:10.073Z,10.20
2018-11-12T22:00:38.556Z,10.20
2018-11-12T22:03:07.113Z,10.20
2018-11-12T22:05:35.788Z,10.20
2018-11-12T22:08:05.384Z,10.20
2018-11-12T22:10:34.050Z,10.20
2018-11-12T22:13:02.751Z,10.20
2018-11-12T22:15:31.364Z,10.30
2018-11-12T22:17:59.886Z,10.30
2018-11-12T22:20:29.229Z,10.30
2018-11-12T22:22:57.775Z,10.20
2018-11-12T22:25:26.276Z,10.20
2018-11-12T22:27:54.791Z,10.30
2018-11-12T22:30:24.564Z,10.30
2018-11-12T22:32:54.608Z,10.30
2018-11-12T22:35:23.114Z,10.30
2018-11-12T22:37:51.866Z,10.30
2018-11-12T22:40:21.176Z,10.30
2018-11-12T22:42:51.029Z,10.30
2018-11-12T22:45:21.802Z,10.30
2018-11-12T22:47:50.813Z,10.30
2018-11-12T22:50:19.286Z,10.30
2018-11-12T22:52:47.946Z,10.30
2018-11-12T22:55:17.589Z,10.30
2018-11-12T22:57:46.915Z,10.30
2018-11-12T23:00:23.797Z,10.30
2018-11-12T23:02:52.646Z,10.30
2018-11-12T23:05:21.541Z,10.30
2018-11-12T23:07:50.428Z,10.30
2018-11-12T23:10:19.698Z,10.30
2018-11-12T23:12:48.402Z,10.30
2018-11-12T23:15:17.567Z,10.30
2018-11-12T23:17:46.067Z,10.30
2018-11-12T23:20:19.851Z,10.30
2018-11-12T23:22:48.796Z,10.30
2018-11-12T23:25:17.499Z,10.30
2018-11-12T23:27:46.877Z,10.30
2018-11-12T23:30:16.734Z,10.30
2018-11-12T23:32:45.225Z,10.30
2018-11-12T23:35:14.979Z,10.30
2018-11-12T23:37:44.210Z,10.30
2018-11-12T23:40:13.196Z,10.20
2018-11-12T23:42:42.166Z,10.20
2018-11-12T23:45:10.647Z,10.20
2018-11-12T23:47:39.469Z,10.20
2018-11-12T23:50:13.917Z,10.10
2018-11-12T23:52:43.175Z,10.10
2018-11-12T23:55:12.085Z,10.10
2018-11-12T23:57:40.719Z,10.10
